createdAt,value
2023-03-28T00:00:18.543Z,98741.69
2023-03-28T00:02:45.411Z,98742.22
2023-03-28T00:05:11.999Z,98750.44
2023-03-28T00:07:39.680Z,98753.72
2023-03-28T00:10:07.237Z,98755.88
2023-03-28T00:12:33.709Z,98754.56
2023-03-28T00:15:00.845Z,98753.75
2023-03-28T00:17:27.371Z,98762.50
2023-03-28T00:19:53.846Z,98763.59
2023-03-28T00:22:20.844Z,98759.97
2023-03-28T00:24:48.802Z,98766.25
2023-03-28T00:27:15.913Z,98764.06
2023-03-28T00:29:42.492Z,98773.88
2023-03-28T00:32:08.985Z,98779.88
2023-03-28T00:34:35.549Z,98778.22
2023-03-28T00:37:05.441Z,98784.78
2023-03-28T00:39:34.490Z,98776.59
2023-03-28T00:42:04.120Z,98787.25
2023-03-28T00:44:53.516Z,98789.38
2023-03-28T00:47:36.767Z,98786.16
2023-03-28T00:50:07.397Z,98784.22
2023-03-28T00:52:46.547Z,98784.78
2023-03-28T00:55:16.567Z,98783.72
2023-03-28T00:57:44.591Z,98785.63
2023-03-28T01:00:16.880Z,98788.34
2023-03-28T01:03:40.286Z,98789.50
2023-03-28T01:06:07.400Z,98791.97
2023-03-28T01:08:35.254Z,98787.63
2023-03-28T01:11:02.065Z,98791.19
2023-03-28T01:13:31.473Z,98792.81
2023-03-28T01:15:59.523Z,98801.53
2023-03-28T01:18:26.129Z,98800.47
2023-03-28T01:21:03.749Z,98802.88
2023-03-28T01:24:11.555Z,98801.78
2023-03-28T01:26:59.018Z,98804.25
2023-03-28T01:29:25.476Z,98814.09
2023-03-28T01:32:16.200Z,98806.72
2023-03-28T01:35:18.713Z,98807.25
2023-03-28T01:38:05.981Z,98799.38
2023-03-28T01:40:45.158Z,98816.56
2023-03-28T01:43:36.823Z,98812.75
2023-03-28T01:46:23.519Z,98815.22
2023-03-28T01:49:08.426Z,98823.69
2023-03-28T01:51:57.144Z,98814.16
2023-03-28T01:54:29.133Z,98815.25
2023-03-28T01:57:07.321Z,98824.25
2023-03-28T01:59:49.555Z,98827.81
2023-03-28T02:02:36.859Z,98822.06
2023-03-28T02:05:06.595Z,98817.13
2023-03-28T02:07:33.826Z,98826.16
2023-03-28T02:10:00.923Z,98815.78
2023-03-28T02:12:30.978Z,98819.63
2023-03-28T02:14:57.385Z,98822.34
2023-03-28T02:17:24.439Z,98819.59
2023-03-28T02:19:55.084Z,98823.97
2023-03-28T02:22:25.776Z,98823.44
2023-03-28T02:24:52.328Z,98820.97
2023-03-28T02:27:19.818Z,98822.88
2023-03-28T02:29:47.853Z,98824.78
2023-03-28T02:32:14.748Z,98830.81
2023-03-28T02:34:43.130Z,98825.06
2023-03-28T02:37:19.251Z,98823.47
2023-03-28T02:39:52.648Z,98824.81
2023-03-28T02:42:34.420Z,98825.91
2023-03-28T02:45:32.952Z,98834.38
2023-03-28T02:48:31.793Z,98821.25
2023-03-28T02:50:58.093Z,98828.34
2023-03-28T02:53:49.101Z,98837.91
2023-03-28T02:56:41.740Z,98833.81
2023-03-28T02:59:12.217Z,98830.25
2023-03-28T03:01:40.907Z,98828.63
2023-03-28T03:04:08.035Z,98827.56
2023-03-28T03:06:35.220Z,98836.28
2023-03-28T03:09:01.695Z,98831.91
2023-03-28T03:11:28.804Z,98830.00
2023-03-28T03:13:55.575Z,98837.66
2023-03-28T03:16:23.763Z,98831.91
2023-03-28T03:18:50.286Z,98828.34
2023-03-28T03:21:16.768Z,98828.63
2023-03-28T03:23:43.264Z,98829.47
2023-03-28T03:26:09.788Z,98830.28
2023-03-28T03:28:36.244Z,98834.06
2023-03-28T03:31:02.758Z,98829.72
2023-03-28T03:33:30.590Z,98847.47
2023-03-28T03:35:59.039Z,98847.22
2023-03-28T03:38:26.134Z,98842.84
2023-03-28T03:40:52.646Z,98838.19
2023-03-28T03:43:19.154Z,98846.13
2023-03-28T03:45:45.896Z,98842.81
2023-03-28T03:48:12.457Z,98842.28
2023-03-28T03:50:39.373Z,98842.28
2023-03-28T03:53:05.842Z,98842.84
2023-03-28T03:55:32.564Z,98843.63
2023-03-28T03:58:00.013Z,98842.84
2023-03-28T04:00:27.090Z,98846.94
2023-03-28T04:02:53.671Z,98843.09
2023-03-28T04:05:20.237Z,98854.28
2023-03-28T04:07:46.772Z,98855.94
2023-03-28T04:10:13.253Z,98855.13
2023-03-28T04:12:39.709Z,98853.22
2023-03-28T04:15:06.944Z,98861.94
2023-03-28T04:17:35.044Z,98859.22
2023-03-28T04:20:02.290Z,98858.94
2023-03-28T04:22:29.916Z,98856.75
2023-03-28T04:25:01.585Z,98868.75
2023-03-28T04:27:31.286Z,98858.09
2023-03-28T04:29:58.163Z,98859.19
2023-03-28T04:32:24.672Z,98859.75
2023-03-28T04:34:51.137Z,98862.47
2023-03-28T04:37:18.130Z,98864.66
2023-03-28T04:39:47.376Z,98865.50
2023-03-28T04:42:14.656Z,98875.59
2023-03-28T04:44:41.116Z,98882.69
2023-03-28T04:47:13.374Z,98881.34
2023-03-28T04:49:39.857Z,98890.03
2023-03-28T04:52:06.439Z,98889.78
2023-03-28T04:54:32.908Z,98906.66
2023-03-28T04:56:59.452Z,98909.16
2023-03-28T04:59:25.962Z,98900.97
2023-03-28T05:01:52.469Z,98910.50
2023-03-28T05:04:19.372Z,98918.69
2023-03-28T05:06:46.317Z,98911.34
2023-03-28T05:09:12.844Z,98917.34
2023-03-28T05:11:39.687Z,98918.72
2023-03-28T05:14:06.264Z,98920.88
2023-03-28T05:16:32.822Z,98920.31
2023-03-28T05:18:59.357Z,98919.25
2023-03-28T05:21:25.872Z,98923.34
2023-03-28T05:23:52.384Z,98929.91
2023-03-28T05:26:19.301Z,98925.28
2023-03-28T05:28:46.095Z,98931.81
2023-03-28T05:31:12.925Z,98936.47
2023-03-28T05:33:39.390Z,98938.66
2023-03-28T05:36:06.186Z,98943.59
2023-03-28T05:38:33.605Z,98952.34
2023-03-28T05:41:00.237Z,98962.44
2023-03-28T05:43:26.958Z,98961.34
2023-03-28T05:45:53.483Z,98965.72
2023-03-28T05:48:20.069Z,98966.56
2023-03-28T05:50:47.975Z,98969.28
2023-03-28T05:53:14.441Z,98972.28
2023-03-28T05:55:41.477Z,98966.53
2023-03-28T05:58:08.044Z,98977.22
2023-03-28T06:00:34.562Z,98970.09
2023-03-28T06:03:01.397Z,98976.13
2023-03-28T06:05:27.966Z,98975.84
2023-03-28T06:07:54.440Z,98977.78
2023-03-28T06:10:21.039Z,98976.94
2023-03-28T06:12:47.525Z,98981.31
2023-03-28T06:15:13.986Z,98978.31
2023-03-28T06:17:40.488Z,98982.66
2023-03-28T06:20:09.620Z,98983.78
2023-03-28T06:22:37.525Z,98988.69
2023-03-28T06:25:04.930Z,98989.78
2023-03-28T06:27:31.850Z,99000.16
2023-03-28T06:29:59.899Z,98999.31
2023-03-28T06:32:27.997Z,99011.34
2023-03-28T06:34:54.515Z,99008.91
2023-03-28T06:37:21.132Z,99003.97
2023-03-28T06:39:50.707Z,99013.56
2023-03-28T06:42:17.453Z,99014.94
2023-03-28T06:44:43.929Z,99013.56
2023-03-28T06:47:10.498Z,99008.66
2023-03-28T06:49:36.965Z,99008.94
2023-03-28T06:52:03.670Z,99014.91
2023-03-28T06:54:30.188Z,99017.66
2023-03-28T06:56:56.693Z,99018.22
2023-03-28T06:59:23.242Z,99029.16
2023-03-28T07:01:49.773Z,99021.22
2023-03-28T07:04:16.289Z,99021.78
2023-03-28T07:06:42.835Z,99018.78
2023-03-28T07:09:09.339Z,99024.50
2023-03-28T07:11:35.955Z,99029.41
2023-03-28T07:14:02.495Z,99028.59
2023-03-28T07:16:29.047Z,99023.16
2023-03-28T07:18:55.738Z,99031.06
2023-03-28T07:21:22.501Z,99037.34
2023-03-28T07:23:48.964Z,99038.19
2023-03-28T07:26:15.745Z,99048.28
2023-03-28T07:28:42.369Z,99046.09
2023-03-28T07:31:09.376Z,99040.34
2023-03-28T07:33:38.263Z,99046.06
2023-03-28T07:36:09.796Z,99049.09
2023-03-28T07:38:36.706Z,99053.22
2023-03-28T07:41:03.714Z,99052.34
2023-03-28T07:43:30.415Z,99052.63
2023-03-28T07:46:02.120Z,99057.53
2023-03-28T07:48:29.200Z,99059.66
2023-03-28T07:50:55.693Z,99066.50
2023-03-28T07:53:22.154Z,99061.72
2023-03-28T07:55:55.288Z,99063.53
2023-03-28T07:58:22.339Z,99056.84
2023-03-28T08:00:48.801Z,99066.34
2023-03-28T08:03:16.264Z,99068.13
2023-03-28T08:05:43.477Z,99069.41
2023-03-28T08:08:09.979Z,99067.63
2023-03-28T08:10:36.926Z,99073.88
2023-03-28T08:13:03.440Z,99069.16
2023-03-28T08:15:30.040Z,99069.78
2023-03-28T08:17:56.543Z,99071.66
2023-03-28T08:20:23.081Z,99069.28
2023-03-28T08:22:49.578Z,99069.44
2023-03-28T08:25:16.055Z,99072.38
2023-03-28T08:27:42.570Z,99076.38
2023-03-28T08:30:10.690Z,99080.78
2023-03-28T08:32:37.242Z,99071.56
2023-03-28T08:35:03.862Z,99069.53
2023-03-28T08:37:31.342Z,99062.75
2023-03-28T08:39:58.955Z,99059.88
2023-03-28T08:42:40.905Z,99069.13
2023-03-28T08:45:43.803Z,99074.06
2023-03-28T08:48:27.098Z,99073.75
2023-03-28T08:51:01.759Z,99059.91
2023-03-28T08:53:39.014Z,99070.31
2023-03-28T08:56:07.127Z,99054.53
2023-03-28T08:59:05.283Z,99071.47
2023-03-28T09:01:32.943Z,99068.06
2023-03-28T09:04:00.540Z,99061.22
2023-03-28T09:06:40.800Z,99081.09
2023-03-28T09:09:13.179Z,99079.00
2023-03-28T09:12:16.307Z,99077.28
2023-03-28T09:15:12.205Z,99063.56
2023-03-28T09:18:02.483Z,99092.94
2023-03-28T09:20:31.863Z,99089.41
2023-03-28T09:23:17.064Z,99088.41
2023-03-28T09:25:51.990Z,99081.34
2023-03-28T09:28:36.855Z,99065.84
2023-03-28T09:31:03.453Z,99067.47
2023-03-28T09:33:35.641Z,99090.41
2023-03-28T09:36:03.077Z,99086.00
2023-03-28T09:38:40.301Z,99076.69
2023-03-28T09:41:12.582Z,99092.19
2023-03-28T09:43:47.402Z,99062.94
2023-03-28T09:46:16.701Z,99058.78
2023-03-28T09:48:43.366Z,99069.56
2023-03-28T09:51:18.944Z,99064.50
2023-03-28T09:53:45.444Z,99064.38
2023-03-28T09:56:24.309Z,99066.06
2023-03-28T09:58:52.456Z,99069.91
2023-03-28T10:01:37.222Z,99066.00
2023-03-28T10:04:15.463Z,99057.00
2023-03-28T10:06:42.426Z,99063.06
2023-03-28T10:09:27.207Z,99062.25
2023-03-28T10:11:59.258Z,99040.38
2023-03-28T10:14:29.960Z,99052.50
2023-03-28T10:16:57.501Z,99045.81
2023-03-28T10:19:24.809Z,99064.66
2023-03-28T10:21:51.432Z,99045.66
2023-03-28T10:24:20.752Z,99037.69
2023-03-28T10:26:47.337Z,99037.41
2023-03-28T10:29:13.827Z,99048.53
2023-03-28T10:31:41.499Z,99052.56
2023-03-28T10:34:10.216Z,99069.84
2023-03-28T10:36:46.019Z,99051.91
2023-03-28T10:39:25.410Z,99046.19
2023-03-28T10:41:56.199Z,99035.63
2023-03-28T10:44:27.127Z,99050.97
2023-03-28T10:46:54.128Z,99038.28
2023-03-28T10:49:20.836Z,99045.19
2023-03-28T10:51:47.304Z,99046.97
2023-03-28T10:54:23.955Z,99038.72
2023-03-28T10:56:55.321Z,99063.69
2023-03-28T10:59:38.010Z,99044.28
2023-03-28T11:02:24.416Z,99018.81
2023-03-28T11:05:01.929Z,99019.50
2023-03-28T11:07:50.339Z,99020.88
2023-03-28T11:10:22.212Z,99022.06
2023-03-28T11:13:02.746Z,99009.78
2023-03-28T11:16:07.818Z,99017.13
2023-03-28T11:18:49.816Z,99021.03
2023-03-28T11:21:48.565Z,98997.44
2023-03-28T11:24:30.601Z,98989.34
2023-03-28T11:27:16.433Z,98984.69
2023-03-28T11:29:53.872Z,99009.88
2023-03-28T11:32:27.389Z,99007.78
2023-03-28T11:35:05.635Z,98979.19
2023-03-28T11:37:37.620Z,99012.00
2023-03-28T11:40:27.508Z,98991.22
2023-03-28T11:43:00.404Z,99010.38
2023-03-28T11:45:50.159Z,98996.56
2023-03-28T11:48:28.626Z,99016.84
2023-03-28T11:51:24.373Z,99012.69
2023-03-28T11:53:53.512Z,99015.13
2023-03-28T11:56:46.163Z,99019.09
2023-03-28T11:59:15.422Z,99001.94
2023-03-28T12:01:47.500Z,99005.00
2023-03-28T12:04:23.915Z,99019.84
2023-03-28T12:07:18.408Z,99003.19
2023-03-28T12:09:55.645Z,99002.88
2023-03-28T12:12:33.862Z,98956.41
2023-03-28T12:15:05.236Z,98969.72
2023-03-28T12:17:38.736Z,98981.50
2023-03-28T12:20:13.159Z,98979.19
2023-03-28T12:23:01.499Z,98993.34
2023-03-28T12:25:35.225Z,98989.72
2023-03-28T12:28:11.027Z,98988.38
2023-03-28T12:30:58.745Z,98986.41
2023-03-28T12:33:52.115Z,98978.97
2023-03-28T12:36:39.325Z,98989.00
2023-03-28T12:39:34.948Z,98990.50
2023-03-28T12:42:05.568Z,98976.03
2023-03-28T12:44:49.433Z,98962.50
2023-03-28T12:47:18.276Z,98962.75
2023-03-28T12:49:48.266Z,98973.00
2023-03-28T12:52:24.308Z,98960.50
2023-03-28T12:55:01.877Z,98948.88
2023-03-28T12:57:40.960Z,98955.72
2023-03-28T13:00:26.608Z,98950.22
2023-03-28T13:03:36.952Z,98964.03
2023-03-28T13:06:12.052Z,98933.03
2023-03-28T13:08:57.251Z,98956.25
2023-03-28T13:12:01.295Z,98960.13
2023-03-28T13:14:42.328Z,98943.69
2023-03-28T13:17:20.613Z,98939.78
2023-03-28T13:19:53.224Z,98927.63
2023-03-28T13:22:32.860Z,98928.06
2023-03-28T13:25:26.168Z,98932.41
2023-03-28T13:27:57.245Z,98933.03
2023-03-28T13:30:28.698Z,98930.44
2023-03-28T13:33:21.135Z,98916.59
2023-03-28T13:35:49.254Z,98902.41
2023-03-28T13:38:24.321Z,98922.59
2023-03-28T13:41:01.888Z,98909.41
2023-03-28T13:43:48.325Z,98908.00
2023-03-28T13:46:19.556Z,98900.81
2023-03-28T13:49:06.572Z,98880.75
2023-03-28T13:51:42.237Z,98896.56
2023-03-28T13:54:12.656Z,98904.50
2023-03-28T13:56:44.552Z,98892.44
2023-03-28T13:59:37.693Z,98884.59
2023-03-28T14:02:18.412Z,98896.22
2023-03-28T14:04:55.914Z,98884.44
2023-03-28T14:07:28.755Z,98890.00
2023-03-28T14:09:56.572Z,98870.47
2023-03-28T14:12:24.806Z,98882.97
2023-03-28T14:14:52.779Z,98871.38
2023-03-28T14:17:27.223Z,98862.78
2023-03-28T14:20:01.921Z,98849.41
2023-03-28T14:22:29.121Z,98851.63
2023-03-28T14:25:03.274Z,98848.72
2023-03-28T14:27:39.672Z,98850.75
2023-03-28T14:30:25.584Z,98866.97
2023-03-28T14:33:07.805Z,98830.81
2023-03-28T14:35:35.301Z,98837.34
2023-03-28T14:38:03.694Z,98840.94
2023-03-28T14:40:31.558Z,98837.63
2023-03-28T14:43:05.303Z,98817.09
2023-03-28T14:45:35.020Z,98819.53
2023-03-28T14:48:01.916Z,98810.09
2023-03-28T14:50:33.170Z,98804.50
2023-03-28T14:53:08.033Z,98811.38
2023-03-28T14:55:36.742Z,98793.91
2023-03-28T14:58:03.455Z,98801.72
2023-03-28T15:00:36.398Z,98787.56
2023-03-28T15:03:04.230Z,98791.38
2023-03-28T15:05:30.760Z,98801.03
2023-03-28T15:08:01.840Z,98775.72
2023-03-28T15:10:28.500Z,98777.50
2023-03-28T15:13:14.117Z,98772.56
2023-03-28T15:15:45.140Z,98764.50
2023-03-28T15:18:14.459Z,98760.31
2023-03-28T15:20:43.129Z,98762.31
2023-03-28T15:23:15.499Z,98743.28
2023-03-28T15:25:42.773Z,98759.78
2023-03-28T15:28:10.546Z,98756.69
2023-03-28T15:30:41.375Z,98742.78
2023-03-28T15:33:07.896Z,98730.66
2023-03-28T15:35:39.043Z,98734.50
2023-03-28T15:38:08.320Z,98738.41
2023-03-28T15:40:40.046Z,98731.72
2023-03-28T15:43:07.135Z,98734.78
2023-03-28T15:45:40.616Z,98726.06
2023-03-28T15:48:13.670Z,98734.50
2023-03-28T15:50:40.190Z,98719.88
2023-03-28T15:53:11.159Z,98725.31
2023-03-28T15:55:37.630Z,98725.44
2023-03-28T15:58:04.113Z,98719.09
2023-03-28T16:00:42.116Z,98728.97
2023-03-28T16:03:19.733Z,98726.72
2023-03-28T16:06:01.809Z,98719.25
2023-03-28T16:08:35.089Z,98719.88
2023-03-28T16:11:02.259Z,98714.53
2023-03-28T16:13:29.496Z,98713.59
2023-03-28T16:15:56.064Z,98708.69
2023-03-28T16:18:22.617Z,98697.47
2023-03-28T16:20:49.116Z,98709.28
2023-03-28T16:23:15.677Z,98700.91
2023-03-28T16:25:42.372Z,98700.38
2023-03-28T16:28:13.223Z,98697.09
2023-03-28T16:30:43.001Z,98689.97
2023-03-28T16:33:09.719Z,98694.91
2023-03-28T16:35:36.338Z,98682.06
2023-03-28T16:38:02.845Z,98677.34
2023-03-28T16:40:29.416Z,98687.38
2023-03-28T16:42:56.009Z,98677.91
2023-03-28T16:45:23.041Z,98682.22
2023-03-28T16:47:49.583Z,98705.59
2023-03-28T16:50:16.495Z,98680.47
2023-03-28T16:52:42.997Z,98679.81
2023-03-28T16:55:11.071Z,98676.72
2023-03-28T16:57:37.574Z,98673.31
2023-03-28T17:00:05.498Z,98672.75
2023-03-28T17:02:32.273Z,98679.59
2023-03-28T17:04:58.815Z,98669.06
2023-03-28T17:07:25.602Z,98671.59
2023-03-28T17:09:52.382Z,98674.19
2023-03-28T17:12:20.407Z,98667.84
2023-03-28T17:14:47.308Z,98656.69
2023-03-28T17:17:13.802Z,98645.50
2023-03-28T17:19:40.374Z,98644.56
2023-03-28T17:22:07.455Z,98639.56
2023-03-28T17:24:34.085Z,98636.47
2023-03-28T17:27:00.803Z,98623.31
2023-03-28T17:29:27.558Z,98650.63
2023-03-28T17:31:54.312Z,98632.13
2023-03-28T17:34:21.521Z,98635.78
2023-03-28T17:36:48.905Z,98649.47
2023-03-28T17:39:15.507Z,98637.13
2023-03-28T17:41:42.460Z,98632.28
2023-03-28T17:44:09.373Z,98634.03
2023-03-28T17:46:36.817Z,98626.78
2023-03-28T17:49:03.309Z,98613.94
2023-03-28T17:51:29.789Z,98611.81
2023-03-28T17:53:56.548Z,98616.63
2023-03-28T17:56:24.196Z,98610.75
2023-03-28T17:58:50.672Z,98604.66
2023-03-28T18:01:18.371Z,98606.09
2023-03-28T18:03:46.071Z,98608.25
2023-03-28T18:06:13.249Z,98622.91
2023-03-28T18:08:42.579Z,98614.69
2023-03-28T18:11:10.839Z,98623.25
2023-03-28T18:13:37.792Z,98613.06
2023-03-28T18:16:05.390Z,98615.50
2023-03-28T18:18:32.831Z,98619.56
2023-03-28T18:20:59.304Z,98616.63
2023-03-28T18:23:25.758Z,98613.75
2023-03-28T18:25:52.442Z,98624.72
2023-03-28T18:28:23.361Z,98622.41
2023-03-28T18:30:51.098Z,98615.75
2023-03-28T18:33:18.283Z,98623.41
2023-03-28T18:35:48.192Z,98621.19
2023-03-28T18:38:15.393Z,98619.06
2023-03-28T18:40:41.974Z,98613.44
2023-03-28T18:43:09.393Z,98605.88
2023-03-28T18:45:36.052Z,98610.00
2023-03-28T18:48:02.617Z,98613.50
2023-03-28T18:50:29.666Z,98614.44
2023-03-28T18:52:57.346Z,98608.25
2023-03-28T18:55:24.417Z,98600.25
2023-03-28T18:57:52.459Z,98630.50
2023-03-28T19:00:19.427Z,98623.28
2023-03-28T19:02:46.451Z,98608.53
2023-03-28T19:05:15.124Z,98594.97
2023-03-28T19:07:46.222Z,98599.81
2023-03-28T19:10:13.422Z,98590.75
2023-03-28T19:12:40.493Z,98596.91
2023-03-28T19:15:08.406Z,98589.69
2023-03-28T19:17:35.587Z,98584.38
2023-03-28T19:20:07.839Z,98576.63
2023-03-28T19:22:35.367Z,98586.13
2023-03-28T19:25:02.062Z,98591.41
2023-03-28T19:27:28.531Z,98592.53
2023-03-28T19:29:55.203Z,98588.28
2023-03-28T19:32:21.684Z,98586.56
2023-03-28T19:34:48.152Z,98583.56
2023-03-28T19:37:14.728Z,98595.06
2023-03-28T19:39:41.258Z,98580.38
2023-03-28T19:42:07.758Z,98583.63
2023-03-28T19:44:34.265Z,98581.88
2023-03-28T19:47:00.772Z,98591.38
2023-03-28T19:49:27.273Z,98590.25
2023-03-28T19:51:54.593Z,98590.78
2023-03-28T19:54:21.460Z,98569.31
2023-03-28T19:56:48.625Z,98564.19
2023-03-28T19:59:15.138Z,98557.28
2023-03-28T20:01:41.663Z,98552.75
2023-03-28T20:04:08.254Z,98577.75
2023-03-28T20:06:34.821Z,98568.97
2023-03-28T20:09:01.644Z,98553.09
2023-03-28T20:11:28.961Z,98557.69
2023-03-28T20:13:55.421Z,98550.56
2023-03-28T20:16:21.978Z,98549.03
2023-03-28T20:18:48.526Z,98555.84
2023-03-28T20:21:15.079Z,98535.75
2023-03-28T20:23:41.628Z,98529.31
2023-03-28T20:26:19.190Z,98528.63
2023-03-28T20:28:49.246Z,98530.66
2023-03-28T20:31:16.812Z,98526.78
2023-03-28T20:33:43.605Z,98520.16
2023-03-28T20:36:10.104Z,98527.31
2023-03-28T20:38:36.636Z,98520.88
2023-03-28T20:41:03.287Z,98518.44
2023-03-28T20:43:29.994Z,98512.91
2023-03-28T20:46:03.154Z,98510.06
2023-03-28T20:48:36.621Z,98514.03
2023-03-28T20:51:22.292Z,98510.78
2023-03-28T20:53:54.939Z,98508.84
2023-03-28T20:56:21.653Z,98499.81
2023-03-28T20:58:48.389Z,98502.28
2023-03-28T21:01:16.425Z,98501.28
2023-03-28T21:03:49.707Z,98503.34
2023-03-28T21:06:17.571Z,98499.47
2023-03-28T21:08:49.468Z,98499.06
2023-03-28T21:11:17.249Z,98501.13
2023-03-28T21:13:45.950Z,98499.28
2023-03-28T21:16:14.247Z,98492.75
2023-03-28T21:18:41.127Z,98498.88
2023-03-28T21:21:09.515Z,98491.22
2023-03-28T21:23:39.370Z,98493.88
2023-03-28T21:26:06.943Z,98484.09
2023-03-28T21:28:34.666Z,98482.06
2023-03-28T21:31:07.719Z,98486.53
2023-03-28T21:33:34.194Z,98482.16
2023-03-28T21:36:00.755Z,98481.13
2023-03-28T21:38:27.419Z,98482.38
2023-03-28T21:40:53.891Z,98479.50
2023-03-28T21:43:20.592Z,98474.31
2023-03-28T21:45:47.736Z,98475.13
2023-03-28T21:48:14.647Z,98473.19
2023-03-28T21:50:41.436Z,98475.91
2023-03-28T21:53:08.907Z,98470.41
2023-03-28T21:55:35.565Z,98468.78
2023-03-28T21:58:02.591Z,98471.63
2023-03-28T22:00:29.060Z,98482.00
2023-03-28T22:02:55.919Z,98473.97
2023-03-28T22:05:29.162Z,98471.63
2023-03-28T22:07:56.519Z,98470.50
2023-03-28T22:10:26.461Z,98471.69
2023-03-28T22:12:58.825Z,98473.63
2023-03-28T22:15:25.542Z,98467.66
2023-03-28T22:17:57.856Z,98464.81
2023-03-28T22:20:25.975Z,98461.88
2023-03-28T22:22:52.646Z,98468.78
2023-03-28T22:25:19.096Z,98467.47
2023-03-28T22:27:45.589Z,98472.59
2023-03-28T22:30:12.385Z,98464.16
2023-03-28T22:32:38.971Z,98448.91
2023-03-28T22:35:06.024Z,98450.09
2023-03-28T22:37:33.116Z,98440.63
2023-03-28T22:39:59.599Z,98437.06
2023-03-28T22:42:26.387Z,98443.38
2023-03-28T22:44:53.434Z,98439.53
2023-03-28T22:47:19.925Z,98437.91
2023-03-28T22:49:46.413Z,98443.09
2023-03-28T22:52:13.608Z,98446.75
2023-03-28T22:54:42.525Z,98445.97
2023-03-28T22:57:09.132Z,98441.78
2023-03-28T22:59:36.376Z,98437.09
2023-03-28T23:02:03.034Z,98433.53
2023-03-28T23:04:29.732Z,98430.47
2023-03-28T23:06:56.375Z,98449.91
2023-03-28T23:09:26.543Z,98444.25
2023-03-28T23:11:54.955Z,98432.72
2023-03-28T23:14:22.073Z,98432.38
2023-03-28T23:16:48.799Z,98433.56
2023-03-28T23:19:16.354Z,98438.69
2023-03-28T23:21:43.029Z,98442.47
2023-03-28T23:24:09.672Z,98445.13
2023-03-28T23:26:36.159Z,98435.13
2023-03-28T23:29:02.762Z,98449.00
2023-03-28T23:31:29.278Z,98442.56
2023-03-28T23:33:55.885Z,98428.13
2023-03-28T23:36:22.372Z,98429.06
2023-03-28T23:38:48.842Z,98422.28
2023-03-28T23:41:15.485Z,98425.72
2023-03-28T23:43:41.978Z,98433.03
2023-03-28T23:46:09.043Z,98416.25
2023-03-28T23:48:36.214Z,98426.31
2023-03-28T23:51:03.060Z,98421.81
2023-03-28T23:53:29.791Z,98428.94
2023-03-28T23:55:56.293Z,98423.88
2023-03-28T23:58:22.789Z,98417.66
